createdAt,value
2023-01-12T00:02:55.976Z,99696.34
2023-01-12T00:06:01.106Z,99693.66
2023-01-12T00:09:07.832Z,99695.22
2023-01-12T00:12:12.928Z,99693.91
2023-01-12T00:15:16.796Z,99709.78
2023-01-12T00:18:20.538Z,99708.13
2023-01-12T00:21:24.189Z,99709.25
2023-01-12T00:24:31.306Z,99711.81
2023-01-12T00:27:34.996Z,99713.41
2023-01-12T00:30:38.815Z,99715.25
2023-01-12T00:33:42.580Z,99728.03
2023-01-12T00:36:47.103Z,99734.78
2023-01-12T00:40:01.800Z,99731.03
2023-01-12T00:43:19.639Z,99730.59
2023-01-12T00:46:31.428Z,99725.38
2023-01-12T00:49:35.200Z,99729.47
2023-01-12T00:52:38.946Z,99732.81
2023-01-12T00:55:44.103Z,99729.94
2023-01-12T00:58:48.623Z,99730.06
2023-01-12T01:01:52.275Z,99724.69
2023-01-12T01:04:55.957Z,99724.75
2023-01-12T01:07:59.713Z,99732.50
2023-01-12T01:11:05.874Z,99729.97
2023-01-12T01:14:09.935Z,99734.13
2023-01-12T01:17:13.633Z,99735.41
2023-01-12T01:20:17.534Z,99740.22
2023-01-12T01:23:21.410Z,99746.09
2023-01-12T01:26:26.748Z,99747.59
2023-01-12T01:29:30.237Z,99749.25
2023-01-12T01:32:33.845Z,99745.25
2023-01-12T01:35:37.617Z,99739.78
2023-01-12T01:38:42.175Z,99735.72
2023-01-12T01:41:48.282Z,99733.44
2023-01-12T01:44:55.097Z,99730.16
2023-01-12T01:48:03.441Z,99731.22
2023-01-12T01:51:11.443Z,99730.38
2023-01-12T01:54:16.151Z,99734.13
2023-01-12T01:57:23.482Z,99728.31
2023-01-12T02:00:27.713Z,99725.31
2023-01-12T02:03:36.578Z,99727.47
2023-01-12T02:06:40.859Z,99722.84
2023-01-12T02:09:45.833Z,99725.06
2023-01-12T02:13:09.532Z,99728.25
2023-01-12T02:16:22.123Z,99724.38
2023-01-12T02:19:50.218Z,99725.19
2023-01-12T02:23:17.620Z,99725.00
2023-01-12T02:26:53.555Z,99731.53
2023-01-12T02:30:38.536Z,99736.09
2023-01-12T02:33:56.188Z,99731.22
2023-01-12T02:37:08.964Z,99731.69
2023-01-12T02:40:22.291Z,99725.91
2023-01-12T02:43:29.089Z,99731.84
2023-01-12T02:46:34.193Z,99722.16
2023-01-12T02:49:45.955Z,99724.13
2023-01-12T02:52:56.589Z,99724.25
2023-01-12T02:56:02.232Z,99716.06
2023-01-12T02:59:13.410Z,99718.03
2023-01-12T03:02:20.549Z,99719.41
2023-01-12T03:05:25.640Z,99726.28
2023-01-12T03:08:31.953Z,99722.72
2023-01-12T03:11:40.521Z,99724.28
2023-01-12T03:14:47.447Z,99731.16
2023-01-12T03:17:56.044Z,99734.25
2023-01-12T03:21:06.681Z,99731.00
2023-01-12T03:24:14.621Z,99731.47
2023-01-12T03:27:23.516Z,99732.63
2023-01-12T03:30:33.165Z,99735.38
2023-01-12T03:33:37.447Z,99732.06
2023-01-12T03:36:49.874Z,99735.56
2023-01-12T03:40:02.636Z,99729.56
2023-01-12T03:43:14.024Z,99737.09
2023-01-12T03:46:23.150Z,99740.41
2023-01-12T03:49:32.468Z,99737.22
2023-01-12T03:52:40.890Z,99744.59
2023-01-12T03:55:46.611Z,99739.97
2023-01-12T03:58:51.803Z,99738.13
2023-01-12T04:01:55.529Z,99737.03
2023-01-12T04:04:59.160Z,99739.84
2023-01-12T04:08:04.267Z,99741.22
2023-01-12T04:11:22.737Z,99749.94
2023-01-12T04:14:26.455Z,99751.63
2023-01-12T04:17:30.166Z,99755.66
2023-01-12T04:20:34.283Z,99748.59
2023-01-12T04:23:38.217Z,99755.34
2023-01-12T04:26:41.832Z,99753.88
2023-01-12T04:29:46.126Z,99762.31
2023-01-12T04:32:49.756Z,99751.97
2023-01-12T04:35:53.361Z,99754.13
2023-01-12T04:38:58.440Z,99759.78
2023-01-12T04:42:02.048Z,99761.53
2023-01-12T04:45:06.619Z,99763.69
2023-01-12T04:48:12.422Z,99765.03
2023-01-12T04:51:16.035Z,99759.97
2023-01-12T04:54:21.165Z,99770.78
2023-01-12T04:57:24.813Z,99771.19
2023-01-12T05:00:28.778Z,99768.53
2023-01-12T05:03:32.765Z,99776.50
2023-01-12T05:06:36.297Z,99777.78
2023-01-12T05:09:58.547Z,99776.81
2023-01-12T05:13:02.013Z,99777.09
2023-01-12T05:16:13.007Z,99782.00
2023-01-12T05:19:16.822Z,99783.38
2023-01-12T05:22:20.657Z,99789.56
2023-01-12T05:25:27.060Z,99777.56
2023-01-12T05:28:31.352Z,99779.88
2023-01-12T05:31:36.222Z,99778.19
2023-01-12T05:34:40.551Z,99781.38
2023-01-12T05:37:44.149Z,99786.59
2023-01-12T05:40:49.116Z,99791.28
2023-01-12T05:43:52.023Z,99796.38
2023-01-12T05:46:56.067Z,99783.91
2023-01-12T05:49:59.800Z,99787.81
2023-01-12T05:53:03.472Z,99790.72
2023-01-12T05:56:13.541Z,99798.00
2023-01-12T05:59:17.305Z,99798.06
2023-01-12T06:02:21.837Z,99801.00
2023-01-12T06:05:25.756Z,99793.22
2023-01-12T06:08:29.885Z,99788.16
2023-01-12T06:11:52.429Z,99795.25
2023-01-12T06:14:56.078Z,99793.06
2023-01-12T06:17:59.815Z,99795.03
2023-01-12T06:21:03.668Z,99802.88
2023-01-12T06:24:08.017Z,99799.09
2023-01-12T06:27:13.115Z,99808.41
2023-01-12T06:30:16.916Z,99809.09
2023-01-12T06:33:20.605Z,99817.59
2023-01-12T06:36:24.341Z,99814.56
2023-01-12T06:39:28.165Z,99815.75
2023-01-12T06:42:33.571Z,99829.41
2023-01-12T06:45:37.306Z,99824.50
2023-01-12T06:48:40.964Z,99830.69
2023-01-12T06:51:44.863Z,99828.63
2023-01-12T06:54:48.736Z,99830.94
2023-01-12T06:57:53.923Z,99827.19
2023-01-12T07:01:02.565Z,99832.16
2023-01-12T07:04:06.591Z,99829.09
2023-01-12T07:07:11.843Z,99834.22
2023-01-12T07:10:15.623Z,99827.44
2023-01-12T07:13:20.880Z,99831.19
2023-01-12T07:16:24.646Z,99835.44
2023-01-12T07:19:28.343Z,99839.19
2023-01-12T07:22:32.256Z,99841.69
2023-01-12T07:25:36.244Z,99841.84
2023-01-12T07:28:43.044Z,99841.31
2023-01-12T07:31:46.785Z,99847.19
2023-01-12T07:34:50.483Z,99843.19
2023-01-12T07:37:55.251Z,99845.97
2023-01-12T07:41:00.481Z,99856.09
2023-01-12T07:44:05.974Z,99852.44
2023-01-12T07:47:09.929Z,99862.00
2023-01-12T07:50:13.595Z,99861.63
2023-01-12T07:53:17.293Z,99861.69
2023-01-12T07:56:21.179Z,99872.00
2023-01-12T07:59:27.711Z,99873.13
2023-01-12T08:02:32.534Z,99876.00
2023-01-12T08:05:37.787Z,99879.59
2023-01-12T08:08:41.544Z,99878.91
2023-01-12T08:11:45.168Z,99879.88
2023-01-12T08:14:50.325Z,99878.41
2023-01-12T08:17:58.533Z,99875.19
2023-01-12T08:21:05.838Z,99877.53
2023-01-12T08:24:10.836Z,99879.69
2023-01-12T08:27:14.596Z,99881.78
2023-01-12T08:30:23.056Z,99877.47
2023-01-12T08:33:28.094Z,99880.53
2023-01-12T08:36:33.109Z,99884.41
2023-01-12T08:39:37.569Z,99882.47
2023-01-12T08:42:41.273Z,99881.16
2023-01-12T08:45:46.376Z,99875.31
2023-01-12T08:48:50.068Z,99874.66
2023-01-12T08:51:54.464Z,99877.84
2023-01-12T08:54:58.701Z,99881.09
2023-01-12T08:58:02.568Z,99878.28
2023-01-12T09:01:13.016Z,99868.88
2023-01-12T09:04:17.107Z,99873.50
2023-01-12T09:07:21.114Z,99872.50
2023-01-12T09:10:24.943Z,99876.88
2023-01-12T09:13:28.808Z,99880.16
2023-01-12T09:16:35.477Z,99868.66
2023-01-12T09:19:39.347Z,99868.09
2023-01-12T09:22:43.144Z,99868.25
2023-01-12T09:25:47.104Z,99863.75
2023-01-12T09:28:52.263Z,99868.88
2023-01-12T09:31:57.687Z,99867.69
2023-01-12T09:35:01.403Z,99862.63
2023-01-12T09:38:05.286Z,99866.47
2023-01-12T09:41:13.146Z,99859.19
2023-01-12T09:44:38.363Z,99856.41
2023-01-12T09:47:53.663Z,99858.66
2023-01-12T09:51:05.140Z,99862.09
2023-01-12T09:54:09.166Z,99847.50
2023-01-12T09:57:45.585Z,99845.88
2023-01-12T10:00:52.714Z,99844.88
2023-01-12T10:03:59.685Z,99837.09
2023-01-12T10:07:03.844Z,99846.72
2023-01-12T10:10:08.652Z,99835.84
2023-01-12T10:13:15.290Z,99829.00
2023-01-12T10:16:27.853Z,99832.41
2023-01-12T10:19:45.913Z,99835.47
2023-01-12T10:22:54.130Z,99827.63
2023-01-12T10:26:09.024Z,99829.13
2023-01-12T10:29:13.967Z,99827.75
2023-01-12T10:32:17.646Z,99827.03
2023-01-12T10:35:25.045Z,99813.47
2023-01-12T10:38:31.712Z,99820.59
2023-01-12T10:41:36.288Z,99819.19
2023-01-12T10:44:40.084Z,99801.38
2023-01-12T10:47:44.286Z,99796.41
2023-01-12T10:51:02.644Z,99791.03
2023-01-12T10:54:18.570Z,99795.88
2023-01-12T10:57:24.878Z,99791.47
2023-01-12T11:00:31.779Z,99799.72
2023-01-12T11:03:38.625Z,99800.34
2023-01-12T11:06:47.230Z,99795.41
2023-01-12T11:09:51.225Z,99792.47
2023-01-12T11:12:59.912Z,99798.13
2023-01-12T11:16:10.185Z,99789.34
2023-01-12T11:19:19.305Z,99793.56
2023-01-12T11:22:28.593Z,99796.38
2023-01-12T11:25:35.829Z,99785.38
2023-01-12T11:28:44.226Z,99790.75
2023-01-12T11:31:53.467Z,99787.38
2023-01-12T11:35:00.715Z,99785.06
2023-01-12T11:38:13.633Z,99778.59
2023-01-12T11:41:25.701Z,99768.25
2023-01-12T11:44:34.964Z,99769.75
2023-01-12T11:47:44.708Z,99766.63
2023-01-12T11:50:53.127Z,99766.47
2023-01-12T11:53:59.425Z,99757.28
2023-01-12T11:57:45.669Z,99756.94
2023-01-12T12:01:01.600Z,99749.63
2023-01-12T12:04:21.784Z,99741.94
2023-01-12T12:07:53.765Z,99749.63
2023-01-12T12:11:04.086Z,99754.94
2023-01-12T12:14:29.495Z,99748.19
2023-01-12T12:17:45.807Z,99750.03
2023-01-12T12:21:05.384Z,99755.47
2023-01-12T12:24:21.728Z,99754.06
2023-01-12T12:27:41.422Z,99739.84
2023-01-12T12:31:04.896Z,99745.59
2023-01-12T12:34:37.793Z,99734.16
2023-01-12T12:37:53.746Z,99742.78
2023-01-12T12:41:34.037Z,99743.31
2023-01-12T12:45:06.472Z,99744.88
2023-01-12T12:48:16.964Z,99741.88
2023-01-12T12:51:23.067Z,99735.00
2023-01-12T12:54:28.187Z,99739.41
2023-01-12T12:57:32.095Z,99738.56
2023-01-12T13:00:42.994Z,99739.88
2023-01-12T13:03:48.146Z,99745.63
2023-01-12T13:06:52.105Z,99740.56
2023-01-12T13:10:06.344Z,99740.00
2023-01-12T13:13:26.763Z,99746.28
2023-01-12T13:16:51.871Z,99746.22
2023-01-12T13:20:26.665Z,99747.94
2023-01-12T13:23:50.729Z,99748.19
2023-01-12T13:26:55.803Z,99742.44
2023-01-12T13:30:22.055Z,99744.88
2023-01-12T13:33:29.324Z,99746.00
2023-01-12T13:36:33.172Z,99749.53
2023-01-12T13:39:41.507Z,99746.84
2023-01-12T13:43:03.625Z,99745.88
2023-01-12T13:46:15.392Z,99737.75
2023-01-12T13:49:33.266Z,99746.88
2023-01-12T13:52:39.685Z,99747.16
2023-01-12T13:55:43.584Z,99748.78
2023-01-12T13:58:47.385Z,99744.09
2023-01-12T14:01:51.512Z,99742.44
2023-01-12T14:05:06.856Z,99745.50
2023-01-12T14:08:51.229Z,99747.41
2023-01-12T14:12:17.606Z,99750.06
2023-01-12T14:15:53.060Z,99754.63
2023-01-12T14:18:57.143Z,99756.28
2023-01-12T14:22:04.766Z,99756.19
2023-01-12T14:25:21.132Z,99761.13
2023-01-12T14:28:32.484Z,99765.19
2023-01-12T14:31:40.742Z,99773.06
2023-01-12T14:34:52.665Z,99776.34
2023-01-12T14:38:00.830Z,99774.72
2023-01-12T14:41:07.042Z,99783.81
2023-01-12T14:44:37.270Z,99781.59
2023-01-12T14:47:42.249Z,99780.94
2023-01-12T14:51:00.244Z,99783.38
2023-01-12T14:54:19.466Z,99783.09
2023-01-12T14:57:29.463Z,99786.94
2023-01-12T15:00:35.845Z,99786.50
2023-01-12T15:03:44.129Z,99791.19
2023-01-12T15:06:48.701Z,99790.38
2023-01-12T15:09:56.733Z,99797.25
2023-01-12T15:13:14.108Z,99801.38
2023-01-12T15:16:35.095Z,99800.28
2023-01-12T15:19:56.729Z,99812.38
2023-01-12T15:23:17.945Z,99812.25
2023-01-12T15:26:24.084Z,99817.06
2023-01-12T15:29:27.945Z,99817.19
2023-01-12T15:32:51.438Z,99820.19
2023-01-12T15:35:55.264Z,99829.00
2023-01-12T15:38:59.202Z,99821.03
2023-01-12T15:42:22.230Z,99833.94
2023-01-12T15:45:34.776Z,99829.53
2023-01-12T15:48:38.725Z,99826.53
2023-01-12T15:51:43.304Z,99837.50
2023-01-12T15:54:47.164Z,99838.72
2023-01-12T15:57:52.531Z,99835.44
2023-01-12T16:00:56.900Z,99827.78
2023-01-12T16:04:39.854Z,99834.47
2023-01-12T16:07:24.783Z,99843.81
2023-01-12T16:10:30.487Z,99831.31
2023-01-12T16:13:35.824Z,99841.50
2023-01-12T16:16:39.842Z,99838.47
2023-01-12T16:19:44.064Z,99842.72
2023-01-12T16:22:48.581Z,99849.69
2023-01-12T16:25:57.387Z,99846.09
2023-01-12T16:29:02.749Z,99851.31
2023-01-12T16:32:07.058Z,99853.53
2023-01-12T16:35:10.963Z,99856.69
2023-01-12T16:38:15.546Z,99857.41
2023-01-12T16:41:22.563Z,99862.16
2023-01-12T16:44:28.026Z,99858.47
2023-01-12T16:47:31.842Z,99865.34
2023-01-12T16:50:36.109Z,99865.81
2023-01-12T16:53:41.776Z,99870.38
2023-01-12T16:56:45.703Z,99863.38
2023-01-12T16:59:51.320Z,99865.22
2023-01-12T17:02:55.517Z,99864.97
2023-01-12T17:05:59.504Z,99868.97
2023-01-12T17:09:03.724Z,99869.28
2023-01-12T17:12:08.484Z,99868.88
2023-01-12T17:15:14.672Z,99868.22
2023-01-12T17:18:18.542Z,99879.59
2023-01-12T17:21:23.299Z,99883.28
2023-01-12T17:24:27.808Z,99888.78
2023-01-12T17:27:31.652Z,99881.56
2023-01-12T17:30:37.133Z,99889.78
2023-01-12T17:33:42.003Z,99882.34
2023-01-12T17:36:46.347Z,99890.19
2023-01-12T17:39:50.281Z,99896.81
2023-01-12T17:43:08.456Z,99895.25
2023-01-12T17:46:20.041Z,99891.72
2023-01-12T17:49:23.983Z,99891.94
2023-01-12T17:52:27.990Z,99893.13
2023-01-12T17:55:34.051Z,99893.97
2023-01-12T17:58:41.390Z,99895.66
2023-01-12T18:01:47.748Z,99896.47
2023-01-12T18:04:51.761Z,99893.16
2023-01-12T18:07:55.703Z,99889.09
2023-01-12T18:11:02.720Z,99891.38
2023-01-12T18:14:07.161Z,99898.56
2023-01-12T18:17:12.993Z,99900.69
2023-01-12T18:20:17.212Z,99906.22
2023-01-12T18:23:21.243Z,99905.59
2023-01-12T18:26:26.711Z,99903.00
2023-01-12T18:29:30.845Z,99898.25
2023-01-12T18:32:36.101Z,99902.16
2023-01-12T18:35:39.902Z,99901.38
2023-01-12T18:38:43.948Z,99897.53
2023-01-12T18:42:04.966Z,99902.31
2023-01-12T18:45:09.721Z,99905.84
2023-01-12T18:48:24.486Z,99906.50
2023-01-12T18:51:45.495Z,99901.13
2023-01-12T18:54:51.882Z,99901.75
2023-01-12T18:57:55.678Z,99902.63
2023-01-12T19:01:01.676Z,99908.16
2023-01-12T19:04:07.212Z,99907.25
2023-01-12T19:07:13.244Z,99904.03
2023-01-12T19:10:17.646Z,99916.47
2023-01-12T19:13:38.683Z,99915.34
2023-01-12T19:17:00.152Z,99918.16
2023-01-12T19:20:08.128Z,99918.88
2023-01-12T19:23:44.883Z,99919.34
2023-01-12T19:27:06.232Z,99928.22
2023-01-12T19:30:11.793Z,99923.81
2023-01-12T19:33:16.206Z,99927.00
2023-01-12T19:36:21.606Z,99929.09
2023-01-12T19:39:40.607Z,99928.66
2023-01-12T19:43:03.612Z,99928.53
2023-01-12T19:46:08.208Z,99929.63
2023-01-12T19:49:13.266Z,99935.50
2023-01-12T19:52:18.468Z,99935.16
2023-01-12T19:55:22.363Z,99934.25
2023-01-12T19:58:27.449Z,99939.41
2023-01-12T20:01:32.210Z,99938.63
2023-01-12T20:04:36.083Z,99938.41
2023-01-12T20:07:41.551Z,99945.91
2023-01-12T20:10:45.894Z,99939.81
2023-01-12T20:13:49.724Z,99943.63
2023-01-12T20:16:53.569Z,99948.84
2023-01-12T20:19:57.469Z,99950.28
2023-01-12T20:23:03.072Z,99946.75
2023-01-12T20:26:09.411Z,99944.59
2023-01-12T20:29:13.212Z,99960.03
2023-01-12T20:32:17.104Z,99950.28
2023-01-12T20:35:23.445Z,99955.22
2023-01-12T20:38:28.804Z,99951.25
2023-01-12T20:41:32.744Z,99955.88
2023-01-12T20:44:36.685Z,99958.91
2023-01-12T20:47:40.788Z,99957.59
2023-01-12T20:50:45.452Z,99962.72
2023-01-12T20:53:50.829Z,99966.50
2023-01-12T20:56:54.608Z,99961.78
2023-01-12T20:59:58.493Z,99959.25
2023-01-12T21:03:02.280Z,99966.72
2023-01-12T21:06:10.296Z,99966.34
2023-01-12T21:09:15.824Z,99955.66
2023-01-12T21:12:19.911Z,99955.63
2023-01-12T21:15:23.752Z,99966.72
2023-01-12T21:18:27.686Z,99958.00
2023-01-12T21:21:31.604Z,99959.16
2023-01-12T21:24:37.007Z,99962.88
2023-01-12T21:27:40.924Z,99954.34
2023-01-12T21:30:44.846Z,99954.25
2023-01-12T21:33:48.949Z,99956.34
2023-01-12T21:36:52.803Z,99955.72
2023-01-12T21:39:58.057Z,99959.94
2023-01-12T21:43:12.506Z,99953.81
2023-01-12T21:46:16.486Z,99957.34
2023-01-12T21:49:20.325Z,99946.94
2023-01-12T21:52:24.407Z,99948.00
2023-01-12T21:55:29.725Z,99946.22
2023-01-12T21:58:36.253Z,99946.72
2023-01-12T22:01:40.128Z,99950.09
2023-01-12T22:04:44.205Z,99941.56
2023-01-12T22:07:49.205Z,99948.28
2023-01-12T22:10:54.624Z,99945.78
2023-01-12T22:13:58.323Z,99937.22
2023-01-12T22:17:02.123Z,99941.84
2023-01-12T22:20:06.714Z,99940.88
2023-01-12T22:23:13.690Z,99936.97
2023-01-12T22:26:21.900Z,99939.06
2023-01-12T22:29:25.888Z,99934.44
2023-01-12T22:32:29.648Z,99925.78
2023-01-12T22:35:33.481Z,99924.88
2023-01-12T22:38:37.367Z,99923.53
2023-01-12T22:41:42.955Z,99921.66
2023-01-12T22:44:46.972Z,99924.81
2023-01-12T22:47:54.008Z,99919.97
2023-01-12T22:51:01.383Z,99920.53
2023-01-12T22:54:05.530Z,99921.38
2023-01-12T22:57:10.861Z,99916.63
2023-01-12T23:00:18.732Z,99910.53
2023-01-12T23:03:22.743Z,99913.88
2023-01-12T23:06:27.521Z,99908.03
2023-01-12T23:09:31.074Z,99903.50
2023-01-12T23:12:37.211Z,99900.69
2023-01-12T23:15:42.112Z,99903.00
2023-01-12T23:18:47.209Z,99909.50
2023-01-12T23:21:50.829Z,99907.00
2023-01-12T23:24:54.910Z,99899.06
2023-01-12T23:28:00.486Z,99900.78
2023-01-12T23:31:06.245Z,99897.72
2023-01-12T23:34:10.063Z,99903.72
2023-01-12T23:37:13.747Z,99905.66
2023-01-12T23:40:18.258Z,99905.25
2023-01-12T23:43:23.358Z,99908.00
2023-01-12T23:46:28.146Z,99903.88
2023-01-12T23:49:31.824Z,99910.09
2023-01-12T23:52:35.433Z,99909.91
2023-01-12T23:55:40.574Z,99908.19
2023-01-12T23:58:45.801Z,99910.97
